Time;durP1;ratioP1;P1;durP2;ratioP2;P2;SDS_P1;SDS_P2;PMS_P1;PMS_P2;Temp;Humidity;BMP_temperature;BMP_pressure;BME280_temperature;BME280_humidity;BME280_pressure;Samples;Min_cycle;Max_cycle;Signal;HPM_P1;HPM_P2
2022/05/20 00:01:43;;;;;;;12.57;8.80;;;;;;;;;;10578450;28;20040;-76
2022/05/20 00:06:43;;;;;;;12.10;9.37;;;;;;;;;;10576435;28;20101;-76
2022/05/20 00:11:44;;;;;;;10.05;7.53;;;;;;;;;;10547436;28;20342;-76
2022/05/20 00:16:44;;;;;;;14.47;9.73;;;;;;;;;;10568424;28;20055;-76
2022/05/20 00:21:44;;;;;;;12.63;8.90;;;;;;;;;;10525703;28;20063;-76
2022/05/20 00:26:45;;;;;;;14.10;9.13;;;;;;;;;;10523844;28;20062;-77
2022/05/20 00:31:47;;;;;;;14.73;10.00;;;;;;;;;;10538695;28;20063;-77
2022/05/20 00:36:47;;;;;;;13.63;9.30;;;;;;;;;;10539595;28;20182;-77
2022/05/20 00:41:48;;;;;;;10.10;7.18;;;;;;;;;;10537613;28;20173;-76
2022/05/20 00:46:48;;;;;;;11.25;9.20;;;;;;;;;;10510320;28;20467;-77
2022/05/20 00:51:50;;;;;;;8.80;7.63;;;;;;;;;;10521984;28;20459;-77
2022/05/20 00:56:57;;;;;;;8.93;7.18;;;;;;;;;;10538146;28;20067;-78
2022/05/20 01:02:00;;;;;;;11.90;8.75;;;;;;;;;;10528235;28;20036;-78
2022/05/20 01:07:00;;;;;;;10.63;8.90;;;;;;;;;;10525613;28;20167;-76
2022/05/20 01:12:01;;;;;;;9.38;7.28;;;;;;;;;;10557943;28;20110;-78
2022/05/20 01:17:03;;;;;;;11.73;9.02;;;;;;;;;;10519410;28;20129;-80
2022/05/20 01:22:06;;;;;;;10.32;8.50;;;;;;;;;;10549759;28;20040;-80
2022/05/20 01:27:07;;;;;;;12.10;8.60;;;;;;;;;;10529480;28;20064;-78
2022/05/20 01:32:07;;;;;;;11.52;8.77;;;;;;;;;;10548561;28;20036;-78
2022/05/20 01:37:08;;;;;;;12.40;9.98;;;;;;;;;;10516275;28;20096;-80
2022/05/20 01:42:13;;;;;;;12.50;10.02;;;;;;;;;;10559186;28;20046;-81
2022/05/20 01:47:17;;;;;;;13.40;9.93;;;;;;;;;;10540594;28;20420;-79
2022/05/20 01:52:20;;;;;;;14.38;11.00;;;;;;;;;;10534573;28;20036;-77
2022/05/20 01:57:26;;;;;;;12.38;10.07;;;;;;;;;;10539810;28;20058;-77
2022/05/20 02:02:30;;;;;;;13.82;10.02;;;;;;;;;;10537200;28;20052;-78
2022/05/20 02:07:33;;;;;;;13.75;11.13;;;;;;;;;;10539551;28;20513;-79
2022/05/20 02:12:36;;;;;;;13.77;10.27;;;;;;;;;;10540743;28;20052;-78
2022/05/20 02:17:39;;;;;;;14.13;11.00;;;;;;;;;;10548849;28;20032;-79
2022/05/20 02:22:41;;;;;;;17.25;12.07;;;;;;;;;;10511073;28;20115;-80
2022/05/20 02:27:46;;;;;;;13.10;11.70;;;;;;;;;;10522181;28;20036;-78
2022/05/20 02:32:56;;;;;;;15.40;12.10;;;;;;;;;;10541390;28;20048;-78
2022/05/20 02:38:03;;;;;;;15.80;12.15;;;;;;;;;;10570139;28;20109;-79
2022/05/20 02:43:04;;;;;;;14.27;11.73;;;;;;;;;;10560842;28;20094;-79
2022/05/20 02:48:05;;;;;;;14.38;11.75;;;;;;;;;;10547638;28;20130;-80
2022/05/20 02:53:05;;;;;;;12.45;11.05;;;;;;;;;;10556741;28;20043;-78
2022/05/20 02:58:06;;;;;;;12.67;10.23;;;;;;;;;;10546972;28;20028;-78
2022/05/20 03:08:25;;;;;;;14.27;10.98;;;;;;;;;;10515575;28;20279;-81
2022/05/20 03:13:25;;;;;;;15.75;12.60;;;;;;;;;;10487192;28;20124;-80
2022/05/20 03:18:26;;;;;;;13.95;10.45;;;;;;;;;;10534225;28;20135;-81
2022/05/20 03:29:44;;;;;;;11.30;10.10;;;;;;;;;;10587995;27;20032;-80
2022/05/20 03:34:46;;;;;;;12.93;11.05;;;;;;;;;;10533215;28;20052;-83
2022/05/20 03:39:48;;;;;;;20.30;11.85;;;;;;;;;;10557750;28;20047;-82
2022/05/20 03:45:00;;;;;;;11.45;9.32;;;;;;;;;;10583666;28;20047;-82
2022/05/20 03:50:11;;;;;;;13.38;10.95;;;;;;;;;;10554868;28;20044;-82
2022/05/20 03:55:17;;;;;;;14.48;11.20;;;;;;;;;;10522760;28;20071;-81
2022/05/20 04:00:18;;;;;;;14.38;11.85;;;;;;;;;;10557039;28;20036;-82
2022/05/20 04:05:20;;;;;;;11.52;9.82;;;;;;;;;;10504689;28;20474;-81
2022/05/20 04:10:23;;;;;;;14.65;11.45;;;;;;;;;;10520876;28;20032;-82
2022/05/20 04:15:25;;;;;;;15.37;11.00;;;;;;;;;;10556524;28;20086;-81
2022/05/20 04:20:26;;;;;;;13.13;10.87;;;;;;;;;;10542775;28;20725;-78
2022/05/20 04:25:27;;;;;;;13.03;10.73;;;;;;;;;;10544182;28;20052;-77
2022/05/20 04:30:28;;;;;;;10.87;9.77;;;;;;;;;;10575014;28;20029;-79
2022/05/20 04:35:29;;;;;;;16.63;12.40;;;;;;;;;;10550073;28;20051;-78
2022/05/20 04:40:34;;;;;;;12.93;11.10;;;;;;;;;;10536018;28;20266;-81
2022/05/20 04:51:01;;;;;;;12.75;10.95;;;;;;;;;;10551524;28;20032;-81
2022/05/20 04:56:02;;;;;;;13.73;11.48;;;;;;;;;;10521768;28;20051;-82
2022/05/20 05:01:03;;;;;;;10.65;9.55;;;;;;;;;;10535613;28;20054;-78
2022/05/20 05:06:03;;;;;;;13.77;11.18;;;;;;;;;;10575472;28;20047;-81
2022/05/20 05:11:04;;;;;;;13.50;9.87;;;;;;;;;;10561557;28;20043;-82
2022/05/20 05:16:10;;;;;;;12.30;10.90;;;;;;;;;;10507730;28;20290;-86
2022/05/20 05:21:14;;;;;;;13.52;12.07;;;;;;;;;;10534051;28;20095;-80
2022/05/20 05:26:23;;;;;;;14.85;12.52;;;;;;;;;;10536860;28;20040;-82
2022/05/20 05:31:26;;;;;;;13.68;10.88;;;;;;;;;;10556257;28;20044;-79
2022/05/20 05:36:28;;;;;;;11.48;9.02;;;;;;;;;;10522511;28;20024;-72
2022/05/20 05:41:28;;;;;;;12.90;9.60;;;;;;;;;;10522570;28;20348;-72
2022/05/20 05:46:30;;;;;;;15.00;11.57;;;;;;;;;;10518734;28;20027;-72
2022/05/20 05:51:31;;;;;;;13.32;10.18;;;;;;;;;;10518799;28;20151;-71
2022/05/20 05:56:31;;;;;;;10.18;9.10;;;;;;;;;;10555128;28;20470;-79
2022/05/20 06:01:34;;;;;;;9.90;8.90;;;;;;;;;;10561050;28;20035;-81
2022/05/20 06:06:34;;;;;;;14.60;10.70;;;;;;;;;;10565747;28;20032;-78
2022/05/20 06:11:36;;;;;;;13.33;11.50;;;;;;;;;;10565764;28;20052;-80
2022/05/20 06:16:40;;;;;;;13.27;11.25;;;;;;;;;;10553307;28;20270;-79
2022/05/20 06:21:40;;;;;;;11.27;8.88;;;;;;;;;;10542910;28;20420;-77
2022/05/20 06:26:41;;;;;;;11.77;10.57;;;;;;;;;;10529254;28;20064;-78
2022/05/20 06:31:42;;;;;;;10.70;9.55;;;;;;;;;;10523630;28;20460;-78
2022/05/20 06:42:07;;;;;;;9.95;8.88;;;;;;;;;;10568363;28;20032;-84
2022/05/20 06:47:08;;;;;;;12.45;9.85;;;;;;;;;;10547003;28;20072;-72
2022/05/20 06:52:09;;;;;;;10.10;9.05;;;;;;;;;;10536317;28;20036;-71
2022/05/20 06:57:09;;;;;;;9.90;9.00;;;;;;;;;;10535302;28;20101;-73
2022/05/20 07:02:10;;;;;;;8.70;7.83;;;;;;;;;;10544583;28;20331;-73
2022/05/20 07:07:10;;;;;;;9.18;8.27;;;;;;;;;;10543148;28;20040;-71
2022/05/20 07:12:11;;;;;;;8.57;6.97;;;;;;;;;;10542913;28;20127;-71
2022/05/20 07:17:18;;;;;;;11.00;8.57;;;;;;;;;;10542694;28;20123;-71
2022/05/20 07:22:18;;;;;;;10.52;8.32;;;;;;;;;;10544017;28;20058;-71
2022/05/20 07:27:19;;;;;;;9.60;8.60;;;;;;;;;;10542409;28;20036;-71
2022/05/20 07:32:20;;;;;;;11.68;9.57;;;;;;;;;;10524519;28;20170;-72
2022/05/20 07:37:20;;;;;;;9.10;7.82;;;;;;;;;;10522194;28;20051;-72
2022/05/20 07:42:22;;;;;;;10.55;9.52;;;;;;;;;;10552322;28;20047;-80
2022/05/20 07:47:24;;;;;;;10.07;9.07;;;;;;;;;;10516512;28;20090;-78
2022/05/20 07:57:43;;;;;;;9.25;8.35;;;;;;;;;;10544757;28;20036;-78
2022/05/20 08:02:44;;;;;;;11.23;9.20;;;;;;;;;;10542900;28;20051;-78
2022/05/20 08:07:45;;;;;;;11.45;10.25;;;;;;;;;;10553693;28;20036;-77
2022/05/20 08:12:46;;;;;;;11.63;10.30;;;;;;;;;;10527970;28;20043;-78
2022/05/20 08:17:46;;;;;;;10.88;9.60;;;;;;;;;;10525484;28;20059;-81
2022/05/20 08:22:46;;;;;;;12.13;9.20;;;;;;;;;;10554707;28;20039;-79
2022/05/20 08:27:47;;;;;;;11.00;9.77;;;;;;;;;;10527538;28;20037;-78
2022/05/20 08:32:47;;;;;;;12.98;10.38;;;;;;;;;;10543664;28;20032;-78
2022/05/20 08:37:48;;;;;;;11.80;10.57;;;;;;;;;;10564622;28;20044;-77
2022/05/20 08:42:50;;;;;;;11.55;9.40;;;;;;;;;;10537825;28;20039;-78
2022/05/20 08:47:52;;;;;;;19.08;10.75;;;;;;;;;;10572230;28;20028;-77
2022/05/20 08:52:54;;;;;;;13.70;9.25;;;;;;;;;;10552274;28;20109;-79
2022/05/20 08:57:58;;;;;;;11.38;10.13;;;;;;;;;;10550188;28;20032;-79
2022/05/20 09:03:01;;;;;;;9.95;8.98;;;;;;;;;;10520155;28;20047;-79
2022/05/20 09:08:15;;;;;;;9.88;8.65;;;;;;;;;;10522223;28;20074;-79
2022/05/20 09:13:18;;;;;;;10.20;9.05;;;;;;;;;;10530526;28;20104;-80
2022/05/20 09:18:22;;;;;;;10.18;7.63;;;;;;;;;;10517350;28;20032;-79
2022/05/20 09:23:25;;;;;;;10.65;7.35;;;;;;;;;;10532027;28;20572;-78
2022/05/20 09:28:31;;;;;;;8.98;7.47;;;;;;;;;;10515768;28;20060;-79
2022/05/20 09:33:34;;;;;;;8.45;6.80;;;;;;;;;;10535141;28;20040;-79
2022/05/20 09:38:39;;;;;;;8.98;8.07;;;;;;;;;;10522340;28;20052;-79
2022/05/20 09:43:41;;;;;;;8.80;7.10;;;;;;;;;;10522277;28;20058;-78
2022/05/20 09:48:42;;;;;;;;;;;;;;;;;;10518081;28;20468;-80
2022/05/20 09:53:43;;;;;;;9.55;7.65;;;;;;;;;;10554649;28;19923;-78
2022/05/20 09:58:57;;;;;;;8.77;7.63;;;;;;;;;;10554891;28;20088;-80
2022/05/20 10:04:01;;;;;;;10.15;7.40;;;;;;;;;;10551005;28;20459;-79
2022/05/20 10:09:01;;;;;;;8.95;7.10;;;;;;;;;;10533802;28;20036;-78
2022/05/20 10:14:14;;;;;;;7.32;6.63;;;;;;;;;;10551643;28;20040;-79
2022/05/20 10:19:30;;;;;;;8.38;7.53;;;;;;;;;;10549935;28;20032;-78
2022/05/20 10:24:33;;;;;;;8.70;6.90;;;;;;;;;;10548929;28;20036;-78
2022/05/20 10:34:55;;;;;;;8.20;7.43;;;;;;;;;;10545950;28;20044;-79
2022/05/20 10:40:06;;;;;;;8.13;7.18;;;;;;;;;;10532848;28;20032;-79
2022/05/20 10:51:04;;;;;;;8.85;7.53;;;;;;;;;;10524601;28;20420;-79
2022/05/20 10:56:06;;;;;;;10.43;8.13;;;;;;;;;;10571646;28;20032;-77
2022/05/20 11:01:29;;;;;;;8.18;7.38;;;;;;;;;;10582025;28;20066;-78
2022/05/20 11:06:37;;;;;;;7.97;7.20;;;;;;;;;;10546428;28;20036;-79
2022/05/20 11:11:43;;;;;;;9.05;7.88;;;;;;;;;;10559198;28;20473;-78
2022/05/20 11:16:46;;;;;;;8.32;7.18;;;;;;;;;;10546000;28;20040;-77
2022/05/20 11:22:02;;;;;;;11.40;8.23;;;;;;;;;;10545822;28;20028;-78
2022/05/20 11:27:03;;;;;;;9.00;7.85;;;;;;;;;;10528497;28;20056;-79
2022/05/20 11:32:07;;;;;;;9.30;7.55;;;;;;;;;;10544677;28;20036;-77
2022/05/20 11:37:20;;;;;;;8.60;7.65;;;;;;;;;;10545923;28;20089;-77
2022/05/20 11:42:20;;;;;;;;;;;;;;;;;;10526401;28;20402;-77
2022/05/20 11:47:25;;;;;;;8.25;7.43;;;;;;;;;;10546192;28;19946;-77
2022/05/20 11:52:27;;;;;;;8.27;7.40;;;;;;;;;;10548532;28;20109;-78
2022/05/20 11:57:35;;;;;;;11.67;7.50;;;;;;;;;;10517393;28;20142;-78
2022/05/20 12:02:45;;;;;;;7.03;6.40;;;;;;;;;;10545816;28;20119;-77
2022/05/20 12:07:46;;;;;;;9.52;7.35;;;;;;;;;;10545078;28;20085;-77
2022/05/20 12:13:06;;;;;;;6.57;5.97;;;;;;;;;;10545690;28;20060;-78
2022/05/20 12:18:21;;;;;;;11.35;7.32;;;;;;;;;;10527406;28;20386;-78
2022/05/20 12:28:29;;;;;;;6.82;6.22;;;;;;;;;;10543080;28;20403;-78
2022/05/20 12:33:48;;;;;;;8.70;7.07;;;;;;;;;;10545866;28;20066;-79
2022/05/20 12:38:49;;;;;;;7.70;6.70;;;;;;;;;;10521259;28;20051;-79
2022/05/20 12:43:51;;;;;;;8.47;6.77;;;;;;;;;;10545540;28;20059;-79
2022/05/20 12:48:53;;;;;;;7.25;6.50;;;;;;;;;;10551059;28;20282;-78
2022/05/20 12:53:55;;;;;;;8.07;6.10;;;;;;;;;;10542169;28;20079;-79
2022/05/20 12:59:14;;;;;;;10.20;6.70;;;;;;;;;;10514549;28;20486;-78
2022/05/20 13:04:16;;;;;;;7.97;6.05;;;;;;;;;;10510396;28;20085;-79
2022/05/20 13:09:22;;;;;;;8.52;6.28;;;;;;;;;;10555017;28;20032;-77
2022/05/20 13:14:28;;;;;;;10.50;6.82;;;;;;;;;;10557417;28;20111;-79
2022/05/20 13:19:30;;;;;;;6.60;5.85;;;;;;;;;;10523724;28;20032;-78
2022/05/20 13:24:33;;;;;;;6.50;5.80;;;;;;;;;;10525733;28;20033;-77
2022/05/20 13:29:34;;;;;;;7.40;6.05;;;;;;;;;;10551553;28;20092;-78
2022/05/20 13:34:35;;;;;;;8.47;5.63;;;;;;;;;;10533523;28;20167;-78
2022/05/20 13:39:40;;;;;;;6.82;5.97;;;;;;;;;;10534893;28;20044;-81
2022/05/20 13:44:44;;;;;;;6.32;5.25;;;;;;;;;;10553879;28;20118;-81
2022/05/20 13:49:46;;;;;;;5.45;4.93;;;;;;;;;;10549662;28;20050;-78
2022/05/20 13:54:48;;;;;;;;;;;;;;;;;;10498971;28;20135;-79
2022/05/20 13:59:49;;;;;;;6.63;5.20;;;;;;;;;;10544039;28;20188;-80
2022/05/20 14:04:49;;;;;;;7.72;5.40;;;;;;;;;;10527893;28;20485;-78
2022/05/20 14:09:54;;;;;;;5.68;4.80;;;;;;;;;;10517786;28;20044;-78
2022/05/20 14:15:18;;;;;;;6.35;4.55;;;;;;;;;;10541187;28;20106;-79
2022/05/20 14:20:20;;;;;;;4.90;4.35;;;;;;;;;;10506296;28;20163;-79
2022/05/20 14:25:23;;;;;;;6.97;4.65;;;;;;;;;;10549833;28;20036;-80
2022/05/20 14:30:42;;;;;;;8.45;5.32;;;;;;;;;;10547847;28;20552;-79
2022/05/20 14:35:44;;;;;;;5.50;4.90;;;;;;;;;;10555393;28;20078;-80
2022/05/20 14:40:50;;;;;;;8.07;4.55;;;;;;;;;;10520445;28;20031;-78
2022/05/20 14:45:55;;;;;;;5.57;4.95;;;;;;;;;;10538197;28;20394;-78
2022/05/20 14:50:58;;;;;;;5.10;4.70;;;;;;;;;;10520221;28;20093;-78
2022/05/20 14:56:00;;;;;;;7.80;4.97;;;;;;;;;;10520014;28;20612;-78
2022/05/20 15:01:01;;;;;;;5.30;4.40;;;;;;;;;;10523045;28;20096;-79
2022/05/20 15:06:02;;;;;;;5.50;4.97;;;;;;;;;;10533249;28;20132;-77
2022/05/20 15:11:14;;;;;;;5.50;4.50;;;;;;;;;;10533418;28;20040;-78
2022/05/20 15:16:15;;;;;;;6.53;5.10;;;;;;;;;;10534864;28;20115;-78
2022/05/20 15:21:18;;;;;;;4.93;4.30;;;;;;;;;;10538979;28;20063;-79
2022/05/20 15:26:26;;;;;;;5.22;4.70;;;;;;;;;;10515445;28;20463;-79
2022/05/20 15:36:54;;;;;;;8.48;5.13;;;;;;;;;;10547614;28;20382;-79
2022/05/20 15:41:55;;;;;;;5.80;4.35;;;;;;;;;;10558467;28;20055;-79
2022/05/20 15:46:55;;;;;;;5.37;4.33;;;;;;;;;;10562891;28;20462;-79
2022/05/20 15:51:56;;;;;;;7.95;5.38;;;;;;;;;;10502186;28;20098;-79
2022/05/20 15:56:57;;;;;;;6.68;4.60;;;;;;;;;;10558970;28;20063;-79
2022/05/20 16:01:58;;;;;;;6.10;4.53;;;;;;;;;;10536409;28;20058;-80
2022/05/20 16:06:59;;;;;;;6.72;4.90;;;;;;;;;;10536222;28;20431;-80
2022/05/20 16:12:00;;;;;;;9.70;5.57;;;;;;;;;;10561109;28;20040;-78
2022/05/20 16:17:00;;;;;;;8.10;5.10;;;;;;;;;;10570046;28;20048;-78
2022/05/20 16:22:01;;;;;;;13.40;4.17;;;;;;;;;;10544279;28;20444;-76
2022/05/20 16:27:01;;;;;;;9.83;4.37;;;;;;;;;;10547205;28;20055;-75
2022/05/20 16:32:02;;;;;;;9.52;2.40;;;;;;;;;;10537527;28;20428;-75
2022/05/20 16:37:02;;;;;;;5.63;2.63;;;;;;;;;;10520223;28;20447;-76
2022/05/20 16:42:04;;;;;;;5.93;2.80;;;;;;;;;;10538255;28;20039;-76
2022/05/20 16:47:04;;;;;;;5.57;3.17;;;;;;;;;;10538549;28;20151;-77
2022/05/20 16:52:08;;;;;;;8.80;3.95;;;;;;;;;;10505520;28;20052;-79
2022/05/20 17:02:29;;;;;;;8.27;4.95;;;;;;;;;;10526012;28;20067;-78
2022/05/20 17:07:31;;;;;;;8.27;4.63;;;;;;;;;;10541809;28;20048;-77
2022/05/20 17:12:33;;;;;;;7.53;4.38;;;;;;;;;;10522783;28;20039;-77
2022/05/20 17:17:34;;;;;;;11.63;5.47;;;;;;;;;;10539950;28;20085;-75
2022/05/20 17:27:53;;;;;;;11.52;7.15;;;;;;;;;;10536086;28;20155;-76
2022/05/20 17:32:54;;;;;;;10.47;7.23;;;;;;;;;;10538040;28;20473;-78
2022/05/20 17:37:54;;;;;;;13.40;8.30;;;;;;;;;;10538924;28;20055;-76
2022/05/20 17:42:54;;;;;;;13.37;8.87;;;;;;;;;;10546736;28;20135;-77
2022/05/20 17:47:55;;;;;;;9.35;7.03;;;;;;;;;;10547077;28;20330;-76
2022/05/20 17:52:55;;;;;;;9.57;7.87;;;;;;;;;;10561512;28;20051;-77
2022/05/20 17:57:56;;;;;;;13.43;8.87;;;;;;;;;;10560306;28;20088;-76
2022/05/20 18:02:56;;;;;;;16.23;9.27;;;;;;;;;;10569760;28;20278;-77
2022/05/20 18:07:58;;;;;;;11.30;8.38;;;;;;;;;;10521415;28;20624;-76
2022/05/20 18:12:58;;;;;;;11.67;7.33;;;;;;;;;;10538481;28;20036;-77
2022/05/20 18:17:58;;;;;;;15.33;10.20;;;;;;;;;;10539786;28;20571;-79
2022/05/20 18:22:59;;;;;;;11.35;8.23;;;;;;;;;;10538640;28;20459;-77
2022/05/20 18:27:59;;;;;;;14.10;9.52;;;;;;;;;;10532769;28;20351;-80
2022/05/20 18:33:03;;;;;;;13.07;8.73;;;;;;;;;;10517767;28;20094;-80
2022/05/20 18:43:24;;;;;;;12.43;8.65;;;;;;;;;;10527007;28;20943;-81
2022/05/20 18:48:24;;;;;;;13.40;10.52;;;;;;;;;;10534748;28;20039;-80
2022/05/20 18:53:30;;;;;;;12.30;8.63;;;;;;;;;;10565468;28;20040;-80
2022/05/20 18:58:34;;;;;;;15.33;11.03;;;;;;;;;;10582149;28;20020;-81
2022/05/20 19:03:43;;;;;;;14.70;11.05;;;;;;;;;;10558009;28;20035;-81
2022/05/20 19:08:45;;;;;;;16.75;10.93;;;;;;;;;;10530158;28;20047;-80
2022/05/20 19:13:46;;;;;;;13.38;10.50;;;;;;;;;;10567663;28;20051;-80
2022/05/20 19:18:47;;;;;;;14.10;11.15;;;;;;;;;;10547152;28;20039;-79
2022/05/20 19:23:47;;;;;;;13.85;11.05;;;;;;;;;;10554317;28;20115;-79
2022/05/20 19:28:47;;;;;;;13.27;10.38;;;;;;;;;;10573438;28;20039;-79
2022/05/20 19:33:48;;;;;;;17.80;14.23;;;;;;;;;;10555227;28;20055;-80
2022/05/20 19:38:50;;;;;;;16.00;12.40;;;;;;;;;;10522836;28;20087;-79
2022/05/20 19:43:53;;;;;;;15.30;12.03;;;;;;;;;;10555856;28;20277;-81
2022/05/20 19:48:54;;;;;;;15.13;10.48;;;;;;;;;;10545053;28;20370;-81
2022/05/20 19:54:00;;;;;;;13.65;11.63;;;;;;;;;;10501768;28;20042;-81
2022/05/20 20:04:21;;;;;;;18.15;13.88;;;;;;;;;;10562004;28;20118;-81
2022/05/20 20:09:23;;;;;;;17.83;13.80;;;;;;;;;;10543617;28;20039;-80
2022/05/20 20:14:24;;;;;;;26.02;17.25;;;;;;;;;;10550292;28;20048;-81
2022/05/20 20:19:27;;;;;;;22.70;15.80;;;;;;;;;;10560191;28;20040;-80
2022/05/20 20:29:48;;;;;;;12.57;7.13;;;;;;;;;;10541638;28;20162;-79
2022/05/20 20:34:50;;;;;;;11.68;6.63;;;;;;;;;;10531567;28;20036;-78
2022/05/20 20:39:52;;;;;;;12.23;7.07;;;;;;;;;;10568339;28;20090;-80
2022/05/20 20:44:55;;;;;;;11.83;6.70;;;;;;;;;;10547169;28;20274;-80
2022/05/20 20:49:57;;;;;;;8.27;5.97;;;;;;;;;;10567035;28;20065;-80
2022/05/20 20:54:57;;;;;;;8.23;5.60;;;;;;;;;;10502976;28;20073;-80
2022/05/20 20:59:57;;;;;;;9.73;6.50;;;;;;;;;;10567321;28;20281;-80
2022/05/20 21:05:01;;;;;;;10.10;6.97;;;;;;;;;;10546639;28;20169;-80
2022/05/20 21:10:01;;;;;;;13.00;7.65;;;;;;;;;;10542010;28;20295;-80
2022/05/20 21:15:03;;;;;;;10.95;6.90;;;;;;;;;;10533937;28;20046;-80
2022/05/20 21:20:04;;;;;;;8.55;6.28;;;;;;;;;;10541559;28;20084;-81
2022/05/20 21:25:06;;;;;;;10.07;6.25;;;;;;;;;;10517151;28;20047;-81
2022/05/20 21:30:06;;;;;;;9.80;5.95;;;;;;;;;;10528425;28;20059;-80
2022/05/20 21:35:07;;;;;;;8.05;5.70;;;;;;;;;;10561809;28;20059;-81
2022/05/20 21:40:09;;;;;;;11.18;7.72;;;;;;;;;;10560619;28;20466;-81
2022/05/20 21:45:12;;;;;;;8.20;5.90;;;;;;;;;;10523838;28;20047;-81
2022/05/20 21:50:12;;;;;;;;;;;;;;;;;;10518421;28;20445;-78
2022/05/20 21:55:13;;;;;;;10.38;6.25;;;;;;;;;;10509136;28;19927;-79
2022/05/20 22:00:19;;;;;;;9.43;6.53;;;;;;;;;;10555992;28;20028;-80
2022/05/20 22:10:40;;;;;;;7.95;5.90;;;;;;;;;;10540452;28;20040;-80
2022/05/20 22:15:42;;;;;;;7.40;6.40;;;;;;;;;;10534976;28;20126;-80
2022/05/20 22:20:43;;;;;;;5.85;5.25;;;;;;;;;;10555464;28;20032;-81
2022/05/20 22:25:44;;;;;;;8.45;5.80;;;;;;;;;;10540154;28;20382;-79
2022/05/20 22:30:44;;;;;;;7.25;5.20;;;;;;;;;;10564652;28;20432;-79
2022/05/20 22:35:49;;;;;;;7.45;5.30;;;;;;;;;;10572399;28;20064;-79
2022/05/20 22:40:55;;;;;;;5.63;4.90;;;;;;;;;;10581536;28;20036;-79
2022/05/20 22:45:55;;;;;;;8.88;6.40;;;;;;;;;;10542855;28;20036;-78
2022/05/20 22:50:57;;;;;;;8.83;6.10;;;;;;;;;;10554726;28;20047;-79
2022/05/20 22:56:07;;;;;;;7.72;6.35;;;;;;;;;;10580077;28;20144;-78
2022/05/20 23:01:08;;;;;;;7.07;5.82;;;;;;;;;;10548100;28;20137;-78
2022/05/20 23:06:08;;;;;;;9.05;6.03;;;;;;;;;;10498572;28;20041;-78
2022/05/20 23:11:10;;;;;;;7.37;4.97;;;;;;;;;;10556847;28;20067;-80
2022/05/20 23:16:13;;;;;;;4.93;4.43;;;;;;;;;;10557318;28;20059;-78
2022/05/20 23:21:18;;;;;;;5.53;4.20;;;;;;;;;;10559407;28;20036;-79
2022/05/20 23:26:20;;;;;;;4.80;4.28;;;;;;;;;;10563187;28;20028;-79
2022/05/20 23:31:21;;;;;;;8.00;4.32;;;;;;;;;;10559515;28;20070;-78
2022/05/20 23:36:34;;;;;;;5.03;4.53;;;;;;;;;;10515653;28;20044;-81
2022/05/20 23:41:37;;;;;;;9.43;6.25;;;;;;;;;;10575058;28;20070;-78
2022/05/20 23:46:38;;;;;;;5.35;3.70;;;;;;;;;;10562787;28;20471;-79
2022/05/20 23:51:39;;;;;;;5.20;3.95;;;;;;;;;;10545894;28;20028;-79
